sensor_id;sensor_type;location;lat;lon;timestamp;temperature;humidity
16491;DHT22;8356;51.214;3.270;2024-01-16T00:00:12;154.50;2252.80
16491;DHT22;8356;51.214;3.270;2024-01-16T00:02:38;154.40;2252.80
16491;DHT22;8356;51.214;3.270;2024-01-16T00:05:04;154.50;2252.80
16491;DHT22;8356;51.214;3.270;2024-01-16T00:07:29;154.50;2252.80
16491;DHT22;8356;51.214;3.270;2024-01-16T00:09:55;154.40;2252.80
16491;DHT22;8356;51.214;3.270;2024-01-16T00:12:21;154.50;2252.80
16491;DHT22;8356;51.214;3.270;2024-01-16T00:14:46;154.40;2252.80
16491;DHT22;8356;51.214;3.270;2024-01-16T00:17:12;154.50;2252.80
16491;DHT22;8356;51.214;3.270;2024-01-16T00:19:38;154.50;2252.80
16491;DHT22;8356;51.214;3.270;2024-01-16T00:22:03;154.40;2252.80
16491;DHT22;8356;51.214;3.270;2024-01-16T00:24:30;154.50;2252.80
16491;DHT22;8356;51.214;3.270;2024-01-16T00:26:56;154.20;2252.80
16491;DHT22;8356;51.214;3.270;2024-01-16T00:29:21;154.40;2252.80
16491;DHT22;8356;51.214;3.270;2024-01-16T00:31:47;154.40;2252.80
16491;DHT22;8356;51.214;3.270;2024-01-16T00:34:13;154.40;2252.80
16491;DHT22;8356;51.214;3.270;2024-01-16T00:36:39;154.40;2252.80
16491;DHT22;8356;51.214;3.270;2024-01-16T00:39:04;154.40;2252.80
16491;DHT22;8356;51.214;3.270;2024-01-16T00:41:30;154.30;2252.80
16491;DHT22;8356;51.214;3.270;2024-01-16T00:43:56;154.40;2252.80
16491;DHT22;8356;51.214;3.270;2024-01-16T00:46:22;154.40;2252.80
16491;DHT22;8356;51.214;3.270;2024-01-16T00:48:47;154.50;2252.80
16491;DHT22;8356;51.214;3.270;2024-01-16T00:51:13;179.20;2252.80
16491;DHT22;8356;51.214;3.270;2024-01-16T00:53:43;179.20;2252.80
16491;DHT22;8356;51.214;3.270;2024-01-16T00:56:09;179.20;2252.80
16491;DHT22;8356;51.214;3.270;2024-01-16T00:58:35;179.20;2252.80
16491;DHT22;8356;51.214;3.270;2024-01-16T01:01:01;179.20;2252.80
16491;DHT22;8356;51.214;3.270;2024-01-16T01:03:26;179.20;2252.80
16491;DHT22;8356;51.214;3.270;2024-01-16T01:05:52;154.50;2252.80
16491;DHT22;8356;51.214;3.270;2024-01-16T01:08:18;154.50;2252.80
16491;DHT22;8356;51.214;3.270;2024-01-16T01:10:44;154.50;2252.80
16491;DHT22;8356;51.214;3.270;2024-01-16T01:13:09;179.30;2252.80
16491;DHT22;8356;51.214;3.270;2024-01-16T01:15:35;179.40;2252.80
16491;DHT22;8356;51.214;3.270;2024-01-16T01:18:01;179.30;2252.80
16491;DHT22;8356;51.214;3.270;2024-01-16T01:20:26;179.40;2252.80
16491;DHT22;8356;51.214;3.270;2024-01-16T01:22:52;179.30;2252.80
16491;DHT22;8356;51.214;3.270;2024-01-16T01:25:17;179.30;2252.80
16491;DHT22;8356;51.214;3.270;2024-01-16T01:27:43;179.40;2252.80
16491;DHT22;8356;51.214;3.270;2024-01-16T01:30:09;179.40;2252.80
16491;DHT22;8356;51.214;3.270;2024-01-16T01:32:38;179.30;2252.80
16491;DHT22;8356;51.214;3.270;2024-01-16T01:35:05;154.40;2252.80
16491;DHT22;8356;51.214;3.270;2024-01-16T01:37:31;154.30;2252.80
16491;DHT22;8356;51.214;3.270;2024-01-16T01:39:56;154.30;2252.80
16491;DHT22;8356;51.214;3.270;2024-01-16T01:42:23;154.40;2252.80
16491;DHT22;8356;51.214;3.270;2024-01-16T01:44:48;154.50;2252.80
16491;DHT22;8356;51.214;3.270;2024-01-16T01:47:14;154.50;2252.80
16491;DHT22;8356;51.214;3.270;2024-01-16T01:49:40;154.50;2252.80
16491;DHT22;8356;51.214;3.270;2024-01-16T01:52:06;154.30;2252.80
16491;DHT22;8356;51.214;3.270;2024-01-16T01:54:35;154.30;2252.80
16491;DHT22;8356;51.214;3.270;2024-01-16T01:57:02;154.20;2252.80
16491;DHT22;8356;51.214;3.270;2024-01-16T01:59:28;154.20;2252.80
16491;DHT22;8356;51.214;3.270;2024-01-16T02:01:55;154.20;2252.80
16491;DHT22;8356;51.214;3.270;2024-01-16T02:04:21;154.00;2252.80
16491;DHT22;8356;51.214;3.270;2024-01-16T02:06:48;153.90;2252.80
16491;DHT22;8356;51.214;3.270;2024-01-16T02:09:14;154.00;2252.80
16491;DHT22;8356;51.214;3.270;2024-01-16T02:11:40;153.90;2252.80
16491;DHT22;8356;51.214;3.270;2024-01-16T02:14:07;154.10;2252.80
16491;DHT22;8356;51.214;3.270;2024-01-16T02:16:40;128.60;2252.80
16491;DHT22;8356;51.214;3.270;2024-01-16T02:19:07;153.80;2252.80
16491;DHT22;8356;51.214;3.270;2024-01-16T02:21:41;128.90;2252.80
16491;DHT22;8356;51.214;3.270;2024-01-16T02:24:08;153.60;2252.80
16491;DHT22;8356;51.214;3.270;2024-01-16T02:26:35;153.80;2252.80
16491;DHT22;8356;51.214;3.270;2024-01-16T02:29:01;153.80;2252.80
16491;DHT22;8356;51.214;3.270;2024-01-16T02:31:27;153.80;2252.80
16491;DHT22;8356;51.214;3.270;2024-01-16T02:33:53;153.80;2252.80
16491;DHT22;8356;51.214;3.270;2024-01-16T02:36:19;153.70;2252.80
16491;DHT22;8356;51.214;3.270;2024-01-16T02:38:44;153.80;2252.80
16491;DHT22;8356;51.214;3.270;2024-01-16T02:41:15;153.90;2252.80
16491;DHT22;8356;51.214;3.270;2024-01-16T02:43:41;154.00;2252.80
16491;DHT22;8356;51.214;3.270;2024-01-16T02:46:07;154.00;2252.80
16491;DHT22;8356;51.214;3.270;2024-01-16T02:48:34;154.00;2252.80
16491;DHT22;8356;51.214;3.270;2024-01-16T02:51:00;153.80;2252.80
16491;DHT22;8356;51.214;3.270;2024-01-16T02:53:26;153.80;2252.80
16491;DHT22;8356;51.214;3.270;2024-01-16T02:55:53;153.80;2252.80
16491;DHT22;8356;51.214;3.270;2024-01-16T02:58:19;153.80;2252.80
16491;DHT22;8356;51.214;3.270;2024-01-16T03:00:44;153.80;2252.80
16491;DHT22;8356;51.214;3.270;2024-01-16T03:03:10;153.90;2252.80
16491;DHT22;8356;51.214;3.270;2024-01-16T03:05:36;153.80;2252.80
16491;DHT22;8356;51.214;3.270;2024-01-16T03:08:02;153.80;2252.80
16491;DHT22;8356;51.214;3.270;2024-01-16T03:10:27;153.60;2252.80
16491;DHT22;8356;51.214;3.270;2024-01-16T03:12:53;153.60;2252.80
16491;DHT22;8356;51.214;3.270;2024-01-16T03:15:19;128.30;2252.80
16491;DHT22;8356;51.214;3.270;2024-01-16T03:17:44;153.70;2252.80
16491;DHT22;8356;51.214;3.270;2024-01-16T03:20:10;153.70;2252.80
16491;DHT22;8356;51.214;3.270;2024-01-16T03:22:37;153.80;2252.80
16491;DHT22;8356;51.214;3.270;2024-01-16T03:25:02;153.80;2252.80
16491;DHT22;8356;51.214;3.270;2024-01-16T03:27:28;153.70;2252.80
16491;DHT22;8356;51.214;3.270;2024-01-16T03:29:54;153.90;2252.80
16491;DHT22;8356;51.214;3.270;2024-01-16T03:32:19;153.90;2252.80
16491;DHT22;8356;51.214;3.270;2024-01-16T03:34:45;153.90;2252.80
16491;DHT22;8356;51.214;3.270;2024-01-16T03:37:11;153.90;2252.80
16491;DHT22;8356;51.214;3.270;2024-01-16T03:39:36;153.90;2252.80
16491;DHT22;8356;51.214;3.270;2024-01-16T03:42:02;154.00;2252.80
16491;DHT22;8356;51.214;3.270;2024-01-16T03:44:28;154.10;2252.80
16491;DHT22;8356;51.214;3.270;2024-01-16T03:46:53;154.00;2252.80
16491;DHT22;8356;51.214;3.270;2024-01-16T03:49:20;153.90;2252.80
16491;DHT22;8356;51.214;3.270;2024-01-16T03:51:46;153.80;2252.80
16491;DHT22;8356;51.214;3.270;2024-01-16T03:54:13;153.80;2252.80
16491;DHT22;8356;51.214;3.270;2024-01-16T03:56:39;153.80;2252.80
16491;DHT22;8356;51.214;3.270;2024-01-16T03:59:05;153.70;2252.80
16491;DHT22;8356;51.214;3.270;2024-01-16T04:01:34;153.80;2252.80
16491;DHT22;8356;51.214;3.270;2024-01-16T04:04:02;153.80;2252.80
16491;DHT22;8356;51.214;3.270;2024-01-16T04:06:28;179.40;2252.80
16491;DHT22;8356;51.214;3.270;2024-01-16T04:08:55;153.90;2252.80
16491;DHT22;8356;51.214;3.270;2024-01-16T04:11:20;153.80;2252.80
16491;DHT22;8356;51.214;3.270;2024-01-16T04:13:46;153.80;2252.80
16491;DHT22;8356;51.214;3.270;2024-01-16T04:16:12;153.70;2252.80
16491;DHT22;8356;51.214;3.270;2024-01-16T04:18:39;153.80;2252.80
16491;DHT22;8356;51.214;3.270;2024-01-16T04:21:09;153.70;2252.80
16491;DHT22;8356;51.214;3.270;2024-01-16T04:23:34;128.80;2252.80
16491;DHT22;8356;51.214;3.270;2024-01-16T04:26:00;128.80;2252.80
16491;DHT22;8356;51.214;3.270;2024-01-16T04:28:26;128.80;2252.80
16491;DHT22;8356;51.214;3.270;2024-01-16T04:30:52;128.70;2252.80
16491;DHT22;8356;51.214;3.270;2024-01-16T04:33:18;128.50;2252.80
16491;DHT22;8356;51.214;3.270;2024-01-16T04:35:43;128.60;2252.80
16491;DHT22;8356;51.214;3.270;2024-01-16T04:38:09;128.60;2252.80
16491;DHT22;8356;51.214;3.270;2024-01-16T04:40:35;128.70;2252.80
16491;DHT22;8356;51.214;3.270;2024-01-16T04:43:01;128.60;2252.80
16491;DHT22;8356;51.214;3.270;2024-01-16T04:45:26;128.50;2252.80
16491;DHT22;8356;51.214;3.270;2024-01-16T04:47:52;128.60;2252.80
16491;DHT22;8356;51.214;3.270;2024-01-16T04:50:18;128.70;2252.80
16491;DHT22;8356;51.214;3.270;2024-01-16T04:52:44;128.70;2252.80
16491;DHT22;8356;51.214;3.270;2024-01-16T04:55:10;128.70;2252.80
16491;DHT22;8356;51.214;3.270;2024-01-16T04:57:36;128.60;2252.80
16491;DHT22;8356;51.214;3.270;2024-01-16T05:00:02;128.40;2252.80
16491;DHT22;8356;51.214;3.270;2024-01-16T05:02:32;103.30;2227.20
16491;DHT22;8356;51.214;3.270;2024-01-16T05:04:59;128.30;2252.80
16491;DHT22;8356;51.214;3.270;2024-01-16T05:07:25;128.30;2252.80
16491;DHT22;8356;51.214;3.270;2024-01-16T05:09:50;128.30;2252.80
16491;DHT22;8356;51.214;3.270;2024-01-16T05:12:16;128.20;2252.80
16491;DHT22;8356;51.214;3.270;2024-01-16T05:14:41;128.20;2252.80
16491;DHT22;8356;51.214;3.270;2024-01-16T05:17:07;128.00;2252.80
16491;DHT22;8356;51.214;3.270;2024-01-16T05:19:33;128.20;2252.80
16491;DHT22;8356;51.214;3.270;2024-01-16T05:21:59;128.30;2252.80
16491;DHT22;8356;51.214;3.270;2024-01-16T05:24:24;128.20;2252.80
16491;DHT22;8356;51.214;3.270;2024-01-16T05:26:50;128.10;2252.80
16491;DHT22;8356;51.214;3.270;2024-01-16T05:29:18;128.10;2252.80
16491;DHT22;8356;51.214;3.270;2024-01-16T05:31:43;128.00;2252.80
16491;DHT22;8356;51.214;3.270;2024-01-16T05:34:10;128.00;2252.80
16491;DHT22;8356;51.214;3.270;2024-01-16T05:36:36;128.00;2252.80
16491;DHT22;8356;51.214;3.270;2024-01-16T05:39:02;128.20;2252.80
16491;DHT22;8356;51.214;3.270;2024-01-16T05:41:32;128.20;2252.80
16491;DHT22;8356;51.214;3.270;2024-01-16T05:43:58;128.00;2252.80
16491;DHT22;8356;51.214;3.270;2024-01-16T05:46:24;128.00;2252.80
16491;DHT22;8356;51.214;3.270;2024-01-16T05:48:50;128.10;2252.80
16491;DHT22;8356;51.214;3.270;2024-01-16T05:51:15;128.20;2252.80
16491;DHT22;8356;51.214;3.270;2024-01-16T05:53:41;128.10;2252.80
16491;DHT22;8356;51.214;3.270;2024-01-16T05:56:07;128.20;2252.80
16491;DHT22;8356;51.214;3.270;2024-01-16T05:58:33;128.20;2252.80
16491;DHT22;8356;51.214;3.270;2024-01-16T06:01:06;128.20;2252.80
16491;DHT22;8356;51.214;3.270;2024-01-16T06:03:32;128.10;2252.80
16491;DHT22;8356;51.214;3.270;2024-01-16T06:05:58;128.10;2252.80
16491;DHT22;8356;51.214;3.270;2024-01-16T06:08:24;128.10;2252.80
16491;DHT22;8356;51.214;3.270;2024-01-16T06:10:50;128.10;2252.80
16491;DHT22;8356;51.214;3.270;2024-01-16T06:13:19;128.20;2252.80
16491;DHT22;8356;51.214;3.270;2024-01-16T06:15:45;128.10;2252.80
16491;DHT22;8356;51.214;3.270;2024-01-16T06:18:10;103.30;2227.20
16491;DHT22;8356;51.214;3.270;2024-01-16T06:20:36;103.20;2227.20
16491;DHT22;8356;51.214;3.270;2024-01-16T06:23:02;103.30;2227.20
16491;DHT22;8356;51.214;3.270;2024-01-16T06:25:27;103.20;2227.20
16491;DHT22;8356;51.214;3.270;2024-01-16T06:27:53;103.20;2227.20
16491;DHT22;8356;51.214;3.270;2024-01-16T06:30:19;103.30;2227.20
16491;DHT22;8356;51.214;3.270;2024-01-16T06:32:44;103.30;2227.20
16491;DHT22;8356;51.214;3.270;2024-01-16T06:35:12;103.20;2227.20
16491;DHT22;8356;51.214;3.270;2024-01-16T06:37:37;103.20;2227.20
16491;DHT22;8356;51.214;3.270;2024-01-16T06:40:03;103.10;2227.20
16491;DHT22;8356;51.214;3.270;2024-01-16T06:42:29;103.20;2227.20
16491;DHT22;8356;51.214;3.270;2024-01-16T06:44:55;103.20;2227.20
16491;DHT22;8356;51.214;3.270;2024-01-16T06:47:20;103.00;2227.20
16491;DHT22;8356;51.214;3.270;2024-01-16T06:49:46;103.00;2227.20
16491;DHT22;8356;51.214;3.270;2024-01-16T06:52:12;103.00;2227.20
16491;DHT22;8356;51.214;3.270;2024-01-16T06:54:38;103.20;2227.20
16491;DHT22;8356;51.214;3.270;2024-01-16T06:57:04;103.30;2227.20
16491;DHT22;8356;51.214;3.270;2024-01-16T06:59:29;103.30;2227.20
16491;DHT22;8356;51.214;3.270;2024-01-16T07:01:55;103.30;2227.20
16491;DHT22;8356;51.214;3.270;2024-01-16T07:04:21;103.20;2227.20
16491;DHT22;8356;51.214;3.270;2024-01-16T07:06:46;103.20;2227.20
16491;DHT22;8356;51.214;3.270;2024-01-16T07:09:12;102.80;2227.20
16491;DHT22;8356;51.214;3.270;2024-01-16T07:11:38;103.00;2227.20
16491;DHT22;8356;51.214;3.270;2024-01-16T07:14:08;103.00;2227.20
16491;DHT22;8356;51.214;3.270;2024-01-16T07:16:34;103.10;2227.20
16491;DHT22;8356;51.214;3.270;2024-01-16T07:19:01;103.10;2227.20
16491;DHT22;8356;51.214;3.270;2024-01-16T07:21:26;103.10;2227.20
16491;DHT22;8356;51.214;3.270;2024-01-16T07:23:53;103.10;2227.20
16491;DHT22;8356;51.214;3.270;2024-01-16T07:26:19;103.10;2227.20
16491;DHT22;8356;51.214;3.270;2024-01-16T07:28:44;103.10;2227.20
16491;DHT22;8356;51.214;3.270;2024-01-16T07:31:10;103.10;2227.20
16491;DHT22;8356;51.214;3.270;2024-01-16T07:33:37;103.10;2227.20
16491;DHT22;8356;51.214;3.270;2024-01-16T07:36:02;103.10;2227.20
16491;DHT22;8356;51.214;3.270;2024-01-16T07:38:28;103.00;2227.20
16491;DHT22;8356;51.214;3.270;2024-01-16T07:40:54;103.00;2227.20
16491;DHT22;8356;51.214;3.270;2024-01-16T07:43:21;102.90;2227.20
16491;DHT22;8356;51.214;3.270;2024-01-16T07:45:47;102.90;2227.20
16491;DHT22;8356;51.214;3.270;2024-01-16T07:48:13;103.00;2227.20
16491;DHT22;8356;51.214;3.270;2024-01-16T07:50:39;103.00;2227.20
16491;DHT22;8356;51.214;3.270;2024-01-16T07:53:04;102.90;2227.20
16491;DHT22;8356;51.214;3.270;2024-01-16T07:55:30;103.00;2227.20
16491;DHT22;8356;51.214;3.270;2024-01-16T07:57:56;103.10;2227.20
16491;DHT22;8356;51.214;3.270;2024-01-16T08:00:21;103.10;2227.20
16491;DHT22;8356;51.214;3.270;2024-01-16T08:02:47;103.30;2227.20
16491;DHT22;8356;51.214;3.270;2024-01-16T08:05:13;103.30;2227.20
16491;DHT22;8356;51.214;3.270;2024-01-16T08:07:39;103.30;2227.20
16491;DHT22;8356;51.214;3.270;2024-01-16T08:10:05;128.00;2252.80
16491;DHT22;8356;51.214;3.270;2024-01-16T08:12:30;128.00;2252.80
16491;DHT22;8356;51.214;3.270;2024-01-16T08:14:56;103.30;2227.20
16491;DHT22;8356;51.214;3.270;2024-01-16T08:17:22;103.20;2227.20
16491;DHT22;8356;51.214;3.270;2024-01-16T08:19:47;103.30;2227.20
16491;DHT22;8356;51.214;3.270;2024-01-16T08:22:14;103.30;2227.20
16491;DHT22;8356;51.214;3.270;2024-01-16T08:24:40;103.30;2227.20
16491;DHT22;8356;51.214;3.270;2024-01-16T08:27:05;103.10;2227.20
16491;DHT22;8356;51.214;3.270;2024-01-16T08:29:31;103.20;2227.20
16491;DHT22;8356;51.214;3.270;2024-01-16T08:31:56;103.30;2227.20
16491;DHT22;8356;51.214;3.270;2024-01-16T08:34:22;103.10;2227.20
16491;DHT22;8356;51.214;3.270;2024-01-16T08:36:48;103.10;2227.20
16491;DHT22;8356;51.214;3.270;2024-01-16T08:39:13;103.10;2227.20
16491;DHT22;8356;51.214;3.270;2024-01-16T08:41:39;103.10;2227.20
16491;DHT22;8356;51.214;3.270;2024-01-16T08:44:04;103.20;2227.20
16491;DHT22;8356;51.214;3.270;2024-01-16T08:46:30;103.30;2227.20
16491;DHT22;8356;51.214;3.270;2024-01-16T08:48:56;103.30;2227.20
16491;DHT22;8356;51.214;3.270;2024-01-16T08:51:22;103.30;2227.20
16491;DHT22;8356;51.214;3.270;2024-01-16T08:53:48;128.00;2252.80
16491;DHT22;8356;51.214;3.270;2024-01-16T08:56:14;103.30;2227.20
16491;DHT22;8356;51.214;3.270;2024-01-16T08:58:39;103.30;2227.20
16491;DHT22;8356;51.214;3.270;2024-01-16T09:01:05;103.30;2227.20
16491;DHT22;8356;51.214;3.270;2024-01-16T09:03:34;128.10;2252.80
16491;DHT22;8356;51.214;3.270;2024-01-16T09:06:01;128.20;2252.80
16491;DHT22;8356;51.214;3.270;2024-01-16T09:08:27;128.20;2252.80
16491;DHT22;8356;51.214;3.270;2024-01-16T09:10:53;128.20;2252.80
16491;DHT22;8356;51.214;3.270;2024-01-16T09:13:19;128.10;2252.80
16491;DHT22;8356;51.214;3.270;2024-01-16T09:15:48;128.10;2252.80
16491;DHT22;8356;51.214;3.270;2024-01-16T09:18:15;128.20;2252.80
16491;DHT22;8356;51.214;3.270;2024-01-16T09:20:42;128.30;2252.80
16491;DHT22;8356;51.214;3.270;2024-01-16T09:23:07;128.20;2252.80
16491;DHT22;8356;51.214;3.270;2024-01-16T09:25:34;128.20;2252.80
16491;DHT22;8356;51.214;3.270;2024-01-16T09:28:00;128.20;2252.80
16491;DHT22;8356;51.214;3.270;2024-01-16T09:30:26;128.30;2252.80
16491;DHT22;8356;51.214;3.270;2024-01-16T09:32:52;128.40;2252.80
16491;DHT22;8356;51.214;3.270;2024-01-16T09:35:17;128.30;2252.80
16491;DHT22;8356;51.214;3.270;2024-01-16T09:37:43;128.30;2252.80
16491;DHT22;8356;51.214;3.270;2024-01-16T09:40:09;128.50;2252.80
16491;DHT22;8356;51.214;3.270;2024-01-16T09:42:35;128.80;2252.80
16491;DHT22;8356;51.214;3.270;2024-01-16T09:45:02;153.60;2252.80
16491;DHT22;8356;51.214;3.270;2024-01-16T09:47:31;153.90;2252.80
16491;DHT22;8356;51.214;3.270;2024-01-16T09:49:59;154.00;2252.80
16491;DHT22;8356;51.214;3.270;2024-01-16T09:52:25;154.00;2252.80
16491;DHT22;8356;51.214;3.270;2024-01-16T09:54:51;154.10;2252.80
16491;DHT22;8356;51.214;3.270;2024-01-16T09:57:19;154.20;2252.80
16491;DHT22;8356;51.214;3.270;2024-01-16T09:59:48;154.30;2252.80
16491;DHT22;8356;51.214;3.270;2024-01-16T10:02:14;154.40;2252.80
16491;DHT22;8356;51.214;3.270;2024-01-16T10:04:43;154.20;2252.80
16491;DHT22;8356;51.214;3.270;2024-01-16T10:07:12;154.20;2252.80
16491;DHT22;8356;51.214;3.270;2024-01-16T10:09:39;154.30;2252.80
16491;DHT22;8356;51.214;3.270;2024-01-16T10:12:06;154.40;2252.80
16491;DHT22;8356;51.214;3.270;2024-01-16T10:14:33;154.40;2252.80
16491;DHT22;8356;51.214;3.270;2024-01-16T10:17:00;154.50;2252.80
16491;DHT22;8356;51.214;3.270;2024-01-16T10:19:59;179.20;2252.80
16491;DHT22;8356;51.214;3.270;2024-01-16T10:22:29;154.10;2252.80
16491;DHT22;8356;51.214;3.270;2024-01-16T10:25:08;179.20;2252.80
16491;DHT22;8356;51.214;3.270;2024-01-16T10:27:35;154.40;2252.80
16491;DHT22;8356;51.214;3.270;2024-01-16T10:30:02;154.40;2252.80
16491;DHT22;8356;51.214;3.270;2024-01-16T10:32:33;154.50;2252.80
16491;DHT22;8356;51.214;3.270;2024-01-16T10:35:10;154.50;2252.80
16491;DHT22;8356;51.214;3.270;2024-01-16T10:37:51;179.30;2252.80
16491;DHT22;8356;51.214;3.270;2024-01-16T10:40:21;179.50;2252.80
16491;DHT22;8356;51.214;3.270;2024-01-16T10:43:03;179.50;2252.80
16491;DHT22;8356;51.214;3.270;2024-01-16T10:45:29;179.60;2252.80
16491;DHT22;8356;51.214;3.270;2024-01-16T10:48:05;205.10;2252.80
16491;DHT22;8356;51.214;3.270;2024-01-16T10:50:35;179.70;2252.80
16491;DHT22;8356;51.214;3.270;2024-01-16T10:53:05;179.70;2252.80
16491;DHT22;8356;51.214;3.270;2024-01-16T10:55:31;179.70;2252.80
16491;DHT22;8356;51.214;3.270;2024-01-16T10:58:03;179.80;2252.80
16491;DHT22;8356;51.214;3.270;2024-01-16T11:00:33;179.80;2252.80
16491;DHT22;8356;51.214;3.270;2024-01-16T11:03:05;179.80;2252.80
16491;DHT22;8356;51.214;3.270;2024-01-16T11:05:32;179.90;2252.80
16491;DHT22;8356;51.214;3.270;2024-01-16T11:08:01;179.80;2252.80
16491;DHT22;8356;51.214;3.270;2024-01-16T11:10:27;179.90;2252.80
16491;DHT22;8356;51.214;3.270;2024-01-16T11:12:55;179.90;2252.80
16491;DHT22;8356;51.214;3.270;2024-01-16T11:15:21;180.00;2252.80
16491;DHT22;8356;51.214;3.270;2024-01-16T11:17:48;204.80;2252.80
16491;DHT22;8356;51.214;3.270;2024-01-16T11:20:15;180.00;2252.80
16491;DHT22;8356;51.214;3.270;2024-01-16T11:22:45;180.10;2252.80
16491;DHT22;8356;51.214;3.270;2024-01-16T11:25:16;204.80;2252.80
16491;DHT22;8356;51.214;3.270;2024-01-16T11:27:43;204.90;2252.80
16491;DHT22;8356;51.214;3.270;2024-01-16T11:30:11;205.00;2252.80
16491;DHT22;8356;51.214;3.270;2024-01-16T11:32:38;180.10;2252.80
16491;DHT22;8356;51.214;3.270;2024-01-16T11:35:09;180.00;2252.80
16491;DHT22;8356;51.214;3.270;2024-01-16T11:37:35;179.90;2252.80
16491;DHT22;8356;51.214;3.270;2024-01-16T11:42:50;180.00;2252.80
16491;DHT22;8356;51.214;3.270;2024-01-16T11:48:13;204.80;2252.80
16491;DHT22;8356;51.214;3.270;2024-01-16T11:50:39;204.80;2252.80
16491;DHT22;8356;51.214;3.270;2024-01-16T11:53:05;204.80;2252.80
16491;DHT22;8356;51.214;3.270;2024-01-16T11:55:35;180.10;2252.80
16491;DHT22;8356;51.214;3.270;2024-01-16T12:00:40;179.70;2252.80
16491;DHT22;8356;51.214;3.270;2024-01-16T12:03:07;179.30;2252.80
16491;DHT22;8356;51.214;3.270;2024-01-16T12:05:33;179.60;2252.80
16491;DHT22;8356;51.214;3.270;2024-01-16T12:07:59;179.80;2252.80
16491;DHT22;8356;51.214;3.270;2024-01-16T12:10:26;179.80;2252.80
16491;DHT22;8356;51.214;3.270;2024-01-16T12:12:58;180.00;2252.80
16491;DHT22;8356;51.214;3.270;2024-01-16T12:15:24;205.00;2252.80
16491;DHT22;8356;51.214;3.270;2024-01-16T12:17:59;179.90;2252.80
16491;DHT22;8356;51.214;3.270;2024-01-16T12:20:30;179.90;2252.80
16491;DHT22;8356;51.214;3.270;2024-01-16T12:23:03;180.10;2252.80
16491;DHT22;8356;51.214;3.270;2024-01-16T12:25:31;204.80;2252.80
16491;DHT22;8356;51.214;3.270;2024-01-16T12:28:01;205.00;2252.80
16491;DHT22;8356;51.214;3.270;2024-01-16T12:30:31;205.10;2252.80
16491;DHT22;8356;51.214;3.270;2024-01-16T12:33:10;205.10;2252.80
16491;DHT22;8356;51.214;3.270;2024-01-16T12:35:45;205.00;2252.80
16491;DHT22;8356;51.214;3.270;2024-01-16T12:38:12;204.90;2252.80
16491;DHT22;8356;51.214;3.270;2024-01-16T12:40:47;180.10;2252.80
16491;DHT22;8356;51.214;3.270;2024-01-16T12:43:16;204.80;2252.80
16491;DHT22;8356;51.214;3.270;2024-01-16T12:45:43;204.90;2252.80
16491;DHT22;8356;51.214;3.270;2024-01-16T12:48:10;205.00;2252.80
16491;DHT22;8356;51.214;3.270;2024-01-16T12:50:36;205.00;2252.80
16491;DHT22;8356;51.214;3.270;2024-01-16T12:55:29;205.00;2252.80
16491;DHT22;8356;51.214;3.270;2024-01-16T12:58:16;180.10;2252.80
16491;DHT22;8356;51.214;3.270;2024-01-16T13:00:46;204.80;2252.80
16491;DHT22;8356;51.214;3.270;2024-01-16T13:03:16;205.00;2252.80
16491;DHT22;8356;51.214;3.270;2024-01-16T13:05:46;205.00;2252.80
16491;DHT22;8356;51.214;3.270;2024-01-16T13:08:18;204.90;2252.80
16491;DHT22;8356;51.214;3.270;2024-01-16T13:10:45;204.90;2252.80
16491;DHT22;8356;51.214;3.270;2024-01-16T13:13:15;204.80;2252.80
16491;DHT22;8356;51.214;3.270;2024-01-16T13:15:41;204.80;2252.80
16491;DHT22;8356;51.214;3.270;2024-01-16T13:18:17;180.00;2252.80
16491;DHT22;8356;51.214;3.270;2024-01-16T13:20:44;204.80;2252.80
16491;DHT22;8356;51.214;3.270;2024-01-16T13:23:12;180.10;2252.80
16491;DHT22;8356;51.214;3.270;2024-01-16T13:25:39;204.80;2252.80
16491;DHT22;8356;51.214;3.270;2024-01-16T13:28:05;204.80;2252.80
16491;DHT22;8356;51.214;3.270;2024-01-16T13:30:33;180.00;2252.80
16491;DHT22;8356;51.214;3.270;2024-01-16T13:32:58;180.10;2252.80
16491;DHT22;8356;51.214;3.270;2024-01-16T13:35:24;180.10;2252.80
16491;DHT22;8356;51.214;3.270;2024-01-16T13:37:50;180.10;2252.80
16491;DHT22;8356;51.214;3.270;2024-01-16T13:40:16;180.10;2252.80
16491;DHT22;8356;51.214;3.270;2024-01-16T13:42:44;204.80;2252.80
16491;DHT22;8356;51.214;3.270;2024-01-16T13:45:11;204.80;2252.80
16491;DHT22;8356;51.214;3.270;2024-01-16T13:47:39;180.10;2252.80
16491;DHT22;8356;51.214;3.270;2024-01-16T13:50:06;180.10;2252.80
16491;DHT22;8356;51.214;3.270;2024-01-16T13:52:35;179.50;2252.80
16491;DHT22;8356;51.214;3.270;2024-01-16T13:55:01;180.00;2252.80
16491;DHT22;8356;51.214;3.270;2024-01-16T13:57:31;179.70;2252.80
16491;DHT22;8356;51.214;3.270;2024-01-16T13:59:57;179.80;2252.80
16491;DHT22;8356;51.214;3.270;2024-01-16T14:02:22;180.00;2252.80
16491;DHT22;8356;51.214;3.270;2024-01-16T14:04:48;180.00;2252.80
16491;DHT22;8356;51.214;3.270;2024-01-16T14:07:13;180.10;2252.80
16491;DHT22;8356;51.214;3.270;2024-01-16T14:09:42;180.10;2252.80
16491;DHT22;8356;51.214;3.270;2024-01-16T14:12:08;204.80;2252.80
16491;DHT22;8356;51.214;3.270;2024-01-16T14:14:34;180.00;2252.80
16491;DHT22;8356;51.214;3.270;2024-01-16T14:17:00;179.90;2252.80
16491;DHT22;8356;51.214;3.270;2024-01-16T14:19:26;180.00;2252.80
16491;DHT22;8356;51.214;3.270;2024-01-16T14:21:53;180.10;2252.80
16491;DHT22;8356;51.214;3.270;2024-01-16T14:24:19;180.00;2252.80
16491;DHT22;8356;51.214;3.270;2024-01-16T14:26:45;179.90;2252.80
16491;DHT22;8356;51.214;3.270;2024-01-16T14:29:11;179.80;2252.80
16491;DHT22;8356;51.214;3.270;2024-01-16T14:31:36;179.90;2252.80
16491;DHT22;8356;51.214;3.270;2024-01-16T14:34:02;179.80;2252.80
16491;DHT22;8356;51.214;3.270;2024-01-16T14:36:29;179.90;2252.80
16491;DHT22;8356;51.214;3.270;2024-01-16T14:38:55;179.90;2252.80
16491;DHT22;8356;51.214;3.270;2024-01-16T14:41:21;179.80;2252.80
16491;DHT22;8356;51.214;3.270;2024-01-16T14:43:48;179.90;2252.80
16491;DHT22;8356;51.214;3.270;2024-01-16T14:46:13;180.00;2252.80
16491;DHT22;8356;51.214;3.270;2024-01-16T14:48:44;179.80;2252.80
16491;DHT22;8356;51.214;3.270;2024-01-16T14:51:13;179.60;2252.80
16491;DHT22;8356;51.214;3.270;2024-01-16T14:53:39;179.60;2252.80
16491;DHT22;8356;51.214;3.270;2024-01-16T14:56:05;179.70;2252.80
16491;DHT22;8356;51.214;3.270;2024-01-16T14:58:31;179.60;2252.80
16491;DHT22;8356;51.214;3.270;2024-01-16T15:00:57;179.50;2252.80
16491;DHT22;8356;51.214;3.270;2024-01-16T15:03:23;179.40;2252.80
16491;DHT22;8356;51.214;3.270;2024-01-16T15:05:50;179.50;2252.80
16491;DHT22;8356;51.214;3.270;2024-01-16T15:08:17;179.60;2252.80
16491;DHT22;8356;51.214;3.270;2024-01-16T15:10:44;179.80;2252.80